Airport Name : Cam Ranh

Other Name : Cam Ranh

ICAO : VVCR

IATA :

FAA :

Latitude : 11.998153

Longitude : 109.219372

Country : Vietnam

Local Date and Time : 7/21/2018 4:17:00 PM

 

TAF (Terminal Aerodrome Forecast)

TAF VVCR 210500Z 2106/2206 23012KT 9999 SCT015 SCT040 TEMPO 2109/2114 TS SCT015 FEW017CB BKN040

 

METAR (METeorological Aerodrome Report)

VVCR 210900Z 14005KT 9999 FEW015 36/24 Q1003 NOSIG

VVCR 210830Z 14007KT 9999 FEW015 SCT040 36/24 Q1003 NOSIG

VVCR 210800Z 12006KT 9999 FEW015 SCT040 35/24 Q1004 NOSIG

VVCR 210730Z 13006KT 9999 FEW015 SCT040 36/23 Q1004 NOSIG

VVCR 210700Z 13007KT 9999 FEW015 SCT040 37/24 Q1004 NOSIG

VVCR 210630Z 12006KT 9999 FEW015 BKN040 36/24 Q1005 NOSIG

VVCR 210600Z 10006KT 9999 FEW015 BKN040 36/24 Q1005 NOSIG

VVCR 210530Z 10006KT 9999 FEW015 BKN040 35/25 Q1005 NOSIG